Time;durP1;ratioP1;P1;durP2;ratioP2;P2;SDS_P1;SDS_P2;PMS_P1;PMS_P2;Temp;Humidity;BMP_temperature;BMP_pressure;BME280_temperature;BME280_humidity;BME280_pressure;Samples;Min_cycle;Max_cycle;Signal;HPM_P1;HPM_P2
2022/01/16 00:04:18;;;;;;;74.50;33.77;;;;;;;;;;5135600;27;20213;-68
2022/01/16 00:06:46;;;;;;;76.73;35.07;;;;;;;;;;5135698;27;20213;-72
2022/01/16 00:09:14;;;;;;;68.27;34.07;;;;;;;;;;5135884;27;20205;-69
2022/01/16 00:11:42;;;;;;;69.90;32.57;;;;;;;;;;5135619;27;20644;-68
2022/01/16 00:14:10;;;;;;;68.30;32.67;;;;;;;;;;5135690;27;20216;-68
2022/01/16 00:16:41;;;;;;;81.67;33.73;;;;;;;;;;5135579;27;20217;-72
2022/01/16 00:19:09;;;;;;;67.53;32.93;;;;;;;;;;5134224;27;20208;-68
2022/01/16 00:21:40;;;;;;;72.13;35.23;;;;;;;;;;5135579;27;20205;-73
2022/01/16 00:24:08;;;;;;;68.23;30.20;;;;;;;;;;5135417;27;20212;-68
2022/01/16 00:26:36;;;;;;;64.50;31.83;;;;;;;;;;5135425;27;20209;-68
2022/01/16 00:29:07;;;;;;;73.20;31.80;;;;;;;;;;5135469;27;20254;-68
2022/01/16 00:31:40;;;;;;;72.63;32.10;;;;;;;;;;5135601;27;20239;-68
2022/01/16 00:34:10;;;;;;;70.27;30.73;;;;;;;;;;5135260;27;20682;-68
2022/01/16 00:36:37;;;;;;;63.07;28.20;;;;;;;;;;5133980;27;20197;-68
2022/01/16 00:39:05;;;;;;;66.70;29.87;;;;;;;;;;5135249;27;20209;-68
2022/01/16 00:41:34;;;;;;;60.80;27.93;;;;;;;;;;5135292;27;20262;-68
2022/01/16 00:44:02;;;;;;;73.00;31.13;;;;;;;;;;5134838;27;20239;-68
2022/01/16 00:46:29;;;;;;;70.07;31.67;;;;;;;;;;5133830;28;20758;-68
2022/01/16 00:48:57;;;;;;;76.90;31.57;;;;;;;;;;5133677;28;20714;-69
2022/01/16 00:51:24;;;;;;;73.37;29.03;;;;;;;;;;5135254;27;20209;-68
2022/01/16 00:53:52;;;;;;;67.40;29.03;;;;;;;;;;5135185;27;20284;-68
2022/01/16 00:56:19;;;;;;;71.57;32.67;;;;;;;;;;5135415;27;20210;-68
2022/01/16 00:58:47;;;;;;;69.53;30.83;;;;;;;;;;5135262;27;20205;-73
2022/01/16 01:01:14;;;;;;;68.50;30.93;;;;;;;;;;5135250;28;20315;-72
2022/01/16 01:03:42;;;;;;;78.40;35.73;;;;;;;;;;5134868;27;20217;-71
2022/01/16 01:06:10;;;;;;;76.23;32.23;;;;;;;;;;5134999;27;20205;-68
2022/01/16 01:08:37;;;;;;;73.17;30.47;;;;;;;;;;5135018;27;20715;-68
2022/01/16 01:11:10;;;;;;;67.10;30.07;;;;;;;;;;5137479;27;20248;-68
2022/01/16 01:16:17;;;;;;;82.73;39.87;;;;;;;;;;5139175;27;20197;-69
2022/01/16 01:18:45;;;;;;;72.17;33.00;;;;;;;;;;5139065;27;20212;-72
2022/01/16 01:23:55;;;;;;;67.20;30.53;;;;;;;;;;5138973;27;20194;-68
2022/01/16 01:26:27;;;;;;;69.10;32.13;;;;;;;;;;5138925;27;20220;-68
2022/01/16 01:28:54;;;;;;;62.60;31.17;;;;;;;;;;5138898;27;20201;-72
2022/01/16 01:31:22;;;;;;;62.80;29.33;;;;;;;;;;5138617;27;20731;-68
2022/01/16 01:33:49;;;;;;;61.13;29.93;;;;;;;;;;5138580;27;20213;-68
2022/01/16 01:36:17;;;;;;;81.73;32.67;;;;;;;;;;5138647;27;20558;-68
2022/01/16 01:38:44;;;;;;;66.73;33.67;;;;;;;;;;5138282;27;20205;-72
2022/01/16 01:41:11;;;;;;;70.80;29.90;;;;;;;;;;5138504;27;20229;-68
2022/01/16 01:51:34;;;;;;;75.90;33.20;;;;;;;;;;5138582;27;20243;-68
2022/01/16 01:54:03;;;;;;;69.77;31.73;;;;;;;;;;5138312;27;20197;-68
2022/01/16 01:56:30;;;;;;;85.37;33.37;;;;;;;;;;5138044;27;20556;-68
2022/01/16 01:59:00;;;;;;;69.20;29.70;;;;;;;;;;5138290;27;20283;-68
2022/01/16 02:01:28;;;;;;;70.60;31.50;;;;;;;;;;5138243;27;20231;-68
2022/01/16 02:03:57;;;;;;;75.70;34.37;;;;;;;;;;5137943;27;20210;-68
2022/01/16 02:06:28;;;;;;;72.20;32.33;;;;;;;;;;5137039;27;20205;-68
2022/01/16 02:08:58;;;;;;;68.23;31.80;;;;;;;;;;5138092;27;20193;-68
2022/01/16 02:11:29;;;;;;;73.80;34.00;;;;;;;;;;5137739;27;20197;-68
2022/01/16 02:14:11;;;;;;;73.83;31.97;;;;;;;;;;5136891;27;20213;-68
2022/01/16 02:32:49;;;;;;;66.93;32.40;;;;;;;;;;5137617;27;20197;-68
2022/01/16 02:35:17;;;;;;;75.03;31.43;;;;;;;;;;5136323;27;20208;-68
2022/01/16 02:37:44;;;;;;;77.73;32.97;;;;;;;;;;5137459;27;20211;-72
2022/01/16 02:40:18;;;;;;;69.77;31.57;;;;;;;;;;5137199;27;20811;-70
2022/01/16 02:42:49;;;;;;;69.80;31.97;;;;;;;;;;5137289;27;20189;-69
2022/01/16 02:45:28;;;;;;;74.17;31.90;;;;;;;;;;5137385;27;20250;-71
2022/01/16 02:48:06;;;;;;;68.17;30.17;;;;;;;;;;5137345;27;20589;-68
2022/01/16 02:50:35;;;;;;;65.97;30.53;;;;;;;;;;5137193;27;20193;-68
2022/01/16 02:53:09;;;;;;;69.83;30.93;;;;;;;;;;5136989;27;20209;-70
2022/01/16 02:55:41;;;;;;;62.50;28.27;;;;;;;;;;5137004;27;20197;-68
2022/01/16 02:58:09;;;;;;;59.43;27.23;;;;;;;;;;5137123;27;20521;-72
2022/01/16 03:00:36;;;;;;;67.50;30.17;;;;;;;;;;5137015;27;20233;-68
2022/01/16 03:03:04;;;;;;;65.00;29.57;;;;;;;;;;5136904;27;20209;-71
2022/01/16 03:05:33;;;;;;;63.93;30.90;;;;;;;;;;5137007;27;20209;-68
2022/01/16 03:08:01;;;;;;;57.47;28.33;;;;;;;;;;5136701;27;20250;-68
2022/01/16 03:12:59;;;;;;;67.50;28.13;;;;;;;;;;5136771;27;20208;-68
2022/01/16 03:15:26;;;;;;;70.10;30.20;;;;;;;;;;5136607;27;20204;-68
2022/01/16 03:23:10;;;;;;;62.13;27.03;;;;;;;;;;5136315;27;20553;-68
2022/01/16 03:25:37;;;;;;;56.83;25.13;;;;;;;;;;5136501;27;20205;-68
2022/01/16 03:28:05;;;;;;;54.37;26.03;;;;;;;;;;5136272;27;20216;-68
2022/01/16 03:30:32;;;;;;;61.03;24.27;;;;;;;;;;5136482;27;20568;-68
2022/01/16 03:33:00;;;;;;;54.53;23.63;;;;;;;;;;5136154;27;20679;-68
2022/01/16 03:35:27;;;;;;;42.50;23.03;;;;;;;;;;5135664;27;20215;-70
2022/01/16 03:37:54;;;;;;;44.27;22.53;;;;;;;;;;5136313;27;20209;-68
2022/01/16 03:40:24;;;;;;;42.97;20.80;;;;;;;;;;5136198;27;20297;-68
2022/01/16 03:42:52;;;;;;;50.10;23.50;;;;;;;;;;5135743;27;20296;-68
2022/01/16 03:45:19;;;;;;;56.33;24.40;;;;;;;;;;5136230;27;20193;-68
2022/01/16 03:47:47;;;;;;;49.00;21.47;;;;;;;;;;5135765;27;20660;-68
2022/01/16 03:50:14;;;;;;;57.33;24.33;;;;;;;;;;5135842;27;20209;-68
2022/01/16 03:52:41;;;;;;;49.80;21.20;;;;;;;;;;5135953;27;20217;-68
2022/01/16 03:55:09;;;;;;;56.20;24.57;;;;;;;;;;5135762;27;20213;-72
2022/01/16 03:57:36;;;;;;;55.17;23.77;;;;;;;;;;5135781;27;20205;-68
2022/01/16 04:00:05;;;;;;;50.50;23.70;;;;;;;;;;5136073;27;20213;-68
2022/01/16 04:02:33;;;;;;;52.60;24.90;;;;;;;;;;5135941;27;20212;-68
2022/01/16 04:05:00;;;;;;;51.80;23.13;;;;;;;;;;5135691;27;20209;-68
2022/01/16 04:07:33;;;;;;;52.20;23.23;;;;;;;;;;5135559;27;20679;-68
2022/01/16 04:10:06;;;;;;;55.13;23.77;;;;;;;;;;5136014;27;20545;-68
2022/01/16 04:12:35;;;;;;;57.53;24.40;;;;;;;;;;5135666;27;20193;-68
2022/01/16 04:17:32;;;;;;;50.40;23.77;;;;;;;;;;5135768;27;20254;-68
2022/01/16 04:19:59;;;;;;;56.00;22.33;;;;;;;;;;5135649;27;20233;-68
2022/01/16 04:22:27;;;;;;;52.57;24.27;;;;;;;;;;5135226;27;20201;-68
2022/01/16 04:24:54;;;;;;;56.93;24.13;;;;;;;;;;5135332;27;20300;-68
2022/01/16 04:27:21;;;;;;;57.03;24.47;;;;;;;;;;5134238;27;20591;-68
2022/01/16 04:29:49;;;;;;;62.33;26.23;;;;;;;;;;5135072;27;20568;-72
2022/01/16 04:32:16;;;;;;;55.27;23.60;;;;;;;;;;5135217;27;20258;-68
2022/01/16 04:34:43;;;;;;;53.33;24.80;;;;;;;;;;5135417;27;20209;-72
2022/01/16 04:37:12;;;;;;;64.83;25.60;;;;;;;;;;5135114;27;20209;-69
2022/01/16 04:39:48;;;;;;;57.43;25.03;;;;;;;;;;5135340;27;20206;-68
2022/01/16 04:44:57;;;;;;;62.53;25.33;;;;;;;;;;5134951;27;20290;-68
2022/01/16 04:47:24;;;;;;;59.57;27.13;;;;;;;;;;5135262;27;20765;-68
2022/01/16 04:49:52;;;;;;;72.40;27.57;;;;;;;;;;5135167;27;20213;-68
2022/01/16 04:52:19;;;;;;;65.23;25.60;;;;;;;;;;5135242;27;20215;-68
2022/01/16 04:54:47;;;;;;;61.93;25.30;;;;;;;;;;5135135;28;20242;-72
2022/01/16 04:57:16;;;;;;;58.97;22.67;;;;;;;;;;5135226;27;20209;-68
2022/01/16 04:59:44;;;;;;;62.47;26.77;;;;;;;;;;5135213;27;20205;-73
2022/01/16 05:02:11;;;;;;;59.13;25.70;;;;;;;;;;5134651;27;20248;-68
2022/01/16 05:04:39;;;;;;;59.07;24.43;;;;;;;;;;5134945;27;20205;-72
2022/01/16 05:07:06;;;;;;;53.67;25.70;;;;;;;;;;5134999;27;20576;-68
2022/01/16 05:09:33;;;;;;;63.70;27.83;;;;;;;;;;5135092;27;20279;-71
2022/01/16 05:12:07;;;;;;;59.27;25.23;;;;;;;;;;5135074;27;20219;-68
2022/01/16 05:17:25;;;;;;;44.63;21.83;;;;;;;;;;5124125;27;20288;-68
2022/01/16 05:19:52;;;;;;;49.10;20.60;;;;;;;;;;5135019;27;20262;-68
2022/01/16 05:22:20;;;;;;;42.73;19.27;;;;;;;;;;5134874;27;20584;-69
2022/01/16 05:24:48;;;;;;;54.83;23.50;;;;;;;;;;5134900;27;20210;-73
2022/01/16 05:27:16;;;;;;;44.53;21.53;;;;;;;;;;5134905;27;20215;-68
2022/01/16 05:29:43;;;;;;;39.50;18.47;;;;;;;;;;5134598;27;20240;-72
2022/01/16 05:32:11;;;;;;;37.53;20.57;;;;;;;;;;5135078;27;20217;-68
2022/01/16 05:34:38;;;;;;;37.43;18.40;;;;;;;;;;5134807;27;20216;-68
2022/01/16 05:37:05;;;;;;;38.57;18.43;;;;;;;;;;5135020;27;20213;-68
2022/01/16 05:39:34;;;;;;;33.10;17.63;;;;;;;;;;5134497;27;20248;-68
2022/01/16 05:42:02;;;;;;;36.50;18.53;;;;;;;;;;5134437;27;20244;-69
2022/01/16 05:44:29;;;;;;;38.80;18.17;;;;;;;;;;5134411;27;20241;-68
2022/01/16 05:46:56;;;;;;;39.73;18.80;;;;;;;;;;5134482;27;20732;-68
2022/01/16 05:49:24;;;;;;;40.17;18.60;;;;;;;;;;5134661;27;20212;-68
2022/01/16 05:51:51;;;;;;;38.43;18.87;;;;;;;;;;5133355;28;20205;-68
2022/01/16 05:54:18;;;;;;;35.93;17.80;;;;;;;;;;5134607;27;20594;-68
2022/01/16 05:56:46;;;;;;;43.27;20.17;;;;;;;;;;5124739;27;20213;-73
2022/01/16 05:59:13;;;;;;;40.67;19.97;;;;;;;;;;5114241;28;20699;-69
2022/01/16 06:01:41;;;;;;;45.23;19.90;;;;;;;;;;5115833;27;20279;-72
2022/01/16 06:04:09;;;;;;;41.20;19.83;;;;;;;;;;5115690;28;20570;-72
2022/01/16 06:06:36;;;;;;;46.27;21.57;;;;;;;;;;5114707;28;20210;-68
2022/01/16 06:09:04;;;;;;;43.40;21.30;;;;;;;;;;5114721;28;20206;-69
2022/01/16 06:11:31;;;;;;;56.37;25.07;;;;;;;;;;5115612;28;20678;-68
2022/01/16 06:13:59;;;;;;;49.87;21.40;;;;;;;;;;5112821;28;20733;-72
2022/01/16 06:16:26;;;;;;;44.30;20.77;;;;;;;;;;5115686;28;20233;-72
2022/01/16 06:18:53;;;;;;;38.77;19.27;;;;;;;;;;5115701;28;20202;-70
2022/01/16 06:21:20;;;;;;;44.13;21.87;;;;;;;;;;5111200;28;20549;-72
2022/01/16 06:23:48;;;;;;;39.57;19.50;;;;;;;;;;5110500;28;20248;-70
2022/01/16 06:26:15;;;;;;;35.83;16.47;;;;;;;;;;5115494;28;20202;-71
2022/01/16 06:28:42;;;;;;;39.63;17.77;;;;;;;;;;5115514;28;20306;-71
2022/01/16 06:31:09;;;;;;;41.17;18.90;;;;;;;;;;5113092;28;20235;-72
2022/01/16 06:33:37;;;;;;;36.80;19.10;;;;;;;;;;5115266;28;20210;-73
2022/01/16 06:36:05;;;;;;;39.83;19.53;;;;;;;;;;5109016;28;20218;-72
2022/01/16 06:38:34;;;;;;;47.03;20.23;;;;;;;;;;5112984;28;20213;-68
2022/01/16 06:41:01;;;;;;;47.20;20.77;;;;;;;;;;5104128;28;20237;-72
2022/01/16 06:43:29;;;;;;;46.87;21.90;;;;;;;;;;5104091;28;20293;-68
2022/01/16 06:45:57;;;;;;;48.70;23.43;;;;;;;;;;5111244;28;20297;-67
2022/01/16 06:48:24;;;;;;;48.47;23.17;;;;;;;;;;5112686;28;20221;-67
2022/01/16 06:50:52;;;;;;;45.93;23.53;;;;;;;;;;5111418;28;20217;-71
2022/01/16 06:53:19;;;;;;;43.17;22.77;;;;;;;;;;5103758;28;20242;-68
2022/01/16 06:55:47;;;;;;;48.53;23.70;;;;;;;;;;5107839;28;20237;-72
2022/01/16 06:58:14;;;;;;;50.97;27.10;;;;;;;;;;5108975;28;20325;-73
2022/01/16 07:00:42;;;;;;;49.03;24.03;;;;;;;;;;5113184;28;20226;-68
2022/01/16 07:03:10;;;;;;;53.67;25.90;;;;;;;;;;5111393;28;20233;-67
2022/01/16 07:05:37;;;;;;;54.17;26.10;;;;;;;;;;5115776;28;20234;-67
2022/01/16 07:08:04;;;;;;;63.70;26.43;;;;;;;;;;5114929;27;20244;-68
2022/01/16 07:10:32;;;;;;;75.50;32.60;;;;;;;;;;5115616;28;20767;-70
2022/01/16 07:12:59;;;;;;;47.93;26.23;;;;;;;;;;5115738;28;20241;-67
2022/01/16 07:15:26;;;;;;;56.57;27.87;;;;;;;;;;5115529;28;20229;-67
2022/01/16 07:17:54;;;;;;;55.80;28.27;;;;;;;;;;5107105;28;20237;-72
2022/01/16 07:20:21;;;;;;;59.37;28.77;;;;;;;;;;5116035;28;20233;-72
2022/01/16 07:22:49;;;;;;;61.10;28.27;;;;;;;;;;5113310;27;20761;-76
2022/01/16 07:25:17;;;;;;;58.30;29.53;;;;;;;;;;5109951;27;20229;-72
2022/01/16 07:27:44;;;;;;;58.07;29.97;;;;;;;;;;5109378;28;20234;-80
2022/01/16 07:30:11;;;;;;;66.80;32.50;;;;;;;;;;5108780;27;20232;-69
2022/01/16 07:32:39;;;;;;;70.97;32.47;;;;;;;;;;5094729;28;20606;-72
2022/01/16 07:35:07;;;;;;;65.53;32.23;;;;;;;;;;5094877;28;20252;-69
2022/01/16 07:37:54;;;;;;;68.93;32.53;;;;;;;;;;5099022;28;20238;-68
2022/01/16 07:40:21;;;;;;;63.83;32.07;;;;;;;;;;5115263;27;20234;-69
2022/01/16 07:42:49;;;;;;;63.77;33.33;;;;;;;;;;5114738;28;20669;-70
2022/01/16 07:45:16;;;;;;;71.97;38.10;;;;;;;;;;5113802;28;20586;-71
2022/01/16 07:47:44;;;;;;;73.97;37.00;;;;;;;;;;5115054;28;20225;-68
2022/01/16 07:50:12;;;;;;;67.33;35.90;;;;;;;;;;5115353;27;20234;-68
2022/01/16 07:52:47;;;;;;;60.33;33.10;;;;;;;;;;5114697;28;20294;-69
2022/01/16 07:55:16;;;;;;;60.20;30.83;;;;;;;;;;5114952;27;20284;-69
2022/01/16 07:57:44;;;;;;;58.97;30.83;;;;;;;;;;5114763;28;20236;-70
2022/01/16 08:00:29;;;;;;;55.17;26.80;;;;;;;;;;5116100;28;20267;-69
2022/01/16 08:02:57;;;;;;;56.53;27.13;;;;;;;;;;5114689;28;20765;-69
2022/01/16 08:05:26;;;;;;;52.57;27.40;;;;;;;;;;5114636;28;20313;-72
2022/01/16 08:07:53;;;;;;;61.47;29.90;;;;;;;;;;5114093;28;20234;-70
2022/01/16 08:10:20;;;;;;;54.67;27.10;;;;;;;;;;5114469;27;20230;-68
2022/01/16 08:12:48;;;;;;;46.57;24.23;;;;;;;;;;5113467;28;20230;-70
2022/01/16 08:15:15;;;;;;;67.07;28.87;;;;;;;;;;5114184;27;20230;-72
2022/01/16 08:17:42;;;;;;;62.87;26.27;;;;;;;;;;5114704;28;20236;-68
2022/01/16 08:20:10;;;;;;;45.90;25.70;;;;;;;;;;5114050;27;20236;-68
2022/01/16 08:22:37;;;;;;;50.43;25.13;;;;;;;;;;5113995;28;20249;-71
2022/01/16 08:25:05;;;;;;;56.80;28.63;;;;;;;;;;5076485;28;20238;-70
2022/01/16 08:27:32;;;;;;;52.07;27.53;;;;;;;;;;5104443;28;20269;-69
2022/01/16 08:30:05;;;;;;;50.40;24.87;;;;;;;;;;5114513;28;20234;-73
2022/01/16 08:32:32;;;;;;;49.67;24.53;;;;;;;;;;5113037;28;20788;-70
2022/01/16 08:35:00;;;;;;;52.37;26.23;;;;;;;;;;5114445;28;20234;-71
2022/01/16 08:37:27;;;;;;;50.00;25.73;;;;;;;;;;5113361;28;20234;-69
2022/01/16 08:39:54;;;;;;;49.93;25.47;;;;;;;;;;5114305;27;20241;-70
2022/01/16 08:42:22;;;;;;;54.87;25.87;;;;;;;;;;5114139;28;20245;-68
2022/01/16 08:44:49;;;;;;;45.80;24.93;;;;;;;;;;5114414;27;20245;-70
2022/01/16 08:47:17;;;;;;;54.77;27.03;;;;;;;;;;5114536;28;20234;-70
2022/01/16 08:49:44;;;;;;;51.07;25.03;;;;;;;;;;5114168;27;20233;-74
2022/01/16 08:52:13;;;;;;;55.33;26.67;;;;;;;;;;5079432;28;20707;-73
2022/01/16 08:54:40;;;;;;;55.43;28.37;;;;;;;;;;5113757;28;20629;-72
2022/01/16 08:57:07;;;;;;;45.73;24.17;;;;;;;;;;5114377;28;20234;-70
2022/01/16 08:59:34;;;;;;;47.40;23.80;;;;;;;;;;5114135;28;20234;-70
2022/01/16 09:02:02;;;;;;;52.03;26.07;;;;;;;;;;5113483;28;20324;-68
2022/01/16 09:04:29;;;;;;;53.50;25.50;;;;;;;;;;5110136;28;20238;-73
2022/01/16 09:06:56;;;;;;;52.87;26.33;;;;;;;;;;5106680;28;20595;-72
2022/01/16 09:09:24;;;;;;;54.80;27.23;;;;;;;;;;5078431;28;20800;-71
2022/01/16 09:11:51;;;;;;;49.77;24.43;;;;;;;;;;5079719;28;20224;-71
2022/01/16 09:14:23;;;;;;;47.63;23.57;;;;;;;;;;5113821;28;20233;-70
2022/01/16 09:16:50;;;;;;;51.43;23.47;;;;;;;;;;5113611;28;20244;-71
2022/01/16 09:19:17;;;;;;;47.40;23.60;;;;;;;;;;5078846;28;20331;-72
2022/01/16 09:21:45;;;;;;;51.17;26.30;;;;;;;;;;5078704;28;20238;-70
2022/01/16 09:24:12;;;;;;;48.00;24.40;;;;;;;;;;5096214;28;20312;-70
2022/01/16 09:26:39;;;;;;;53.97;26.27;;;;;;;;;;5103737;28;20233;-70
2022/01/16 09:29:07;;;;;;;50.57;25.13;;;;;;;;;;5092267;28;20242;-69
2022/01/16 09:31:34;;;;;;;52.63;24.67;;;;;;;;;;5093053;28;20274;-69
2022/01/16 09:34:01;;;;;;;55.70;26.10;;;;;;;;;;5096067;28;20611;-70
2022/01/16 09:36:28;;;;;;;58.33;27.50;;;;;;;;;;5096591;28;20279;-71
2022/01/16 09:38:55;;;;;;;54.13;26.60;;;;;;;;;;5111126;28;20238;-72
2022/01/16 09:41:23;;;;;;;52.33;27.47;;;;;;;;;;5117551;27;20812;-73
2022/01/16 09:43:50;;;;;;;51.87;27.00;;;;;;;;;;5117688;28;20246;-72
2022/01/16 09:46:17;;;;;;;50.60;27.73;;;;;;;;;;5116255;28;20238;-71
2022/01/16 09:48:45;;;;;;;53.00;26.47;;;;;;;;;;5117450;28;21103;-71
2022/01/16 09:51:12;;;;;;;87.90;35.33;;;;;;;;;;5081695;28;20233;-74
2022/01/16 09:53:42;;;;;;;58.57;28.67;;;;;;;;;;5082515;28;20229;-73
2022/01/16 09:56:10;;;;;;;58.20;27.40;;;;;;;;;;5099122;28;20283;-74
2022/01/16 09:58:39;;;;;;;55.33;29.10;;;;;;;;;;5117556;28;20241;-74
2022/01/16 10:01:06;;;;;;;52.17;30.70;;;;;;;;;;5115888;28;20233;-76
2022/01/16 10:03:39;;;;;;;71.60;34.73;;;;;;;;;;5117024;28;20245;-76
2022/01/16 10:06:09;;;;;;;60.20;29.00;;;;;;;;;;5116091;28;20237;-76
2022/01/16 10:08:38;;;;;;;52.37;28.50;;;;;;;;;;5116913;27;20263;-75
2022/01/16 10:11:39;;;;;;;63.53;29.73;;;;;;;;;;5116913;27;20321;-73
2022/01/16 10:14:34;;;;;;;58.00;30.73;;;;;;;;;;5115972;28;20291;-69
2022/01/16 10:17:12;;;;;;;64.93;31.97;;;;;;;;;;5093282;28;20559;-75
2022/01/16 10:19:40;;;;;;;73.13;33.93;;;;;;;;;;5116783;28;20632;-78
2022/01/16 10:22:09;;;;;;;70.60;33.43;;;;;;;;;;5116018;27;20731;-77
2022/01/16 10:24:39;;;;;;;70.30;33.63;;;;;;;;;;5115334;28;20234;-76
2022/01/16 10:27:10;;;;;;;73.57;34.93;;;;;;;;;;5106154;28;20633;-75
2022/01/16 10:29:44;;;;;;;74.47;34.80;;;;;;;;;;5096154;28;20229;-75
2022/01/16 10:32:33;;;;;;;71.80;35.13;;;;;;;;;;5095371;28;20222;-77
2022/01/16 10:35:23;;;;;;;64.77;31.53;;;;;;;;;;5095409;28;20696;-76
2022/01/16 10:37:57;;;;;;;64.47;32.37;;;;;;;;;;5100951;28;20238;-75
2022/01/16 10:40:32;;;;;;;67.20;32.53;;;;;;;;;;5116397;27;20234;-78
2022/01/16 10:43:05;;;;;;;67.40;32.57;;;;;;;;;;5114251;28;20241;-79
2022/01/16 10:45:33;;;;;;;75.30;32.60;;;;;;;;;;5115553;28;20245;-74
2022/01/16 10:48:03;;;;;;;65.67;31.83;;;;;;;;;;5115183;27;20222;-74
2022/01/16 10:50:39;;;;;;;63.87;31.00;;;;;;;;;;5114602;28;20577;-76
2022/01/16 10:53:15;;;;;;;67.53;30.43;;;;;;;;;;5079230;28;20278;-71
2022/01/16 10:55:57;;;;;;;70.07;32.03;;;;;;;;;;5076085;28;20238;-74
2022/01/16 10:58:37;;;;;;;64.07;31.77;;;;;;;;;;5095305;28;20233;-77
2022/01/16 11:01:14;;;;;;;70.00;32.43;;;;;;;;;;5097869;27;20614;-72
2022/01/16 11:03:48;;;;;;;66.00;31.93;;;;;;;;;;5115628;28;20719;-69
2022/01/16 11:06:21;;;;;;;73.17;33.00;;;;;;;;;;5114410;27;20242;-69
2022/01/16 11:08:59;;;;;;;77.43;35.57;;;;;;;;;;5115791;28;20264;-70
2022/01/16 11:11:26;;;;;;;79.93;36.17;;;;;;;;;;5114481;27;20233;-69
2022/01/16 11:13:55;;;;;;;73.93;35.93;;;;;;;;;;5115731;28;20234;-72
2022/01/16 11:16:24;;;;;;;80.60;35.77;;;;;;;;;;5114218;27;20241;-72
2022/01/16 11:18:51;;;;;;;82.17;36.83;;;;;;;;;;5115633;28;20787;-71
2022/01/16 11:26:27;;;;;;;72.97;34.27;;;;;;;;;;5104107;28;20237;-67
2022/01/16 11:28:56;;;;;;;58.67;31.40;;;;;;;;;;5096795;28;20234;-68
2022/01/16 11:31:24;;;;;;;71.50;33.87;;;;;;;;;;5076360;28;20245;-68
2022/01/16 11:33:52;;;;;;;65.13;32.67;;;;;;;;;;5094624;28;20241;-68
2022/01/16 11:36:25;;;;;;;73.77;33.47;;;;;;;;;;5094255;28;20838;-72
2022/01/16 11:38:58;;;;;;;75.13;33.73;;;;;;;;;;5108304;28;20238;-74
2022/01/16 11:41:31;;;;;;;73.00;33.87;;;;;;;;;;5115067;28;20272;-72
2022/01/16 11:44:04;;;;;;;72.47;33.53;;;;;;;;;;5114917;27;20260;-72
2022/01/16 11:46:34;;;;;;;71.17;33.27;;;;;;;;;;5114385;28;20684;-68
2022/01/16 11:49:05;;;;;;;64.73;32.00;;;;;;;;;;5113428;28;20236;-72
2022/01/16 11:51:35;;;;;;;75.30;35.30;;;;;;;;;;5115072;28;20309;-69
2022/01/16 11:54:15;;;;;;;72.70;34.00;;;;;;;;;;5113461;28;20237;-71
2022/01/16 11:56:43;;;;;;;72.93;34.60;;;;;;;;;;5114691;28;20230;-70
2022/01/16 11:59:10;;;;;;;71.33;35.27;;;;;;;;;;5114892;28;20230;-70
2022/01/16 12:01:51;;;;;;;75.07;34.03;;;;;;;;;;5112297;28;20234;-72
2022/01/16 12:04:33;;;;;;;75.40;35.23;;;;;;;;;;5112881;28;20246;-69
2022/01/16 12:07:16;;;;;;;75.40;32.97;;;;;;;;;;5113992;28;20242;-69
2022/01/16 12:09:49;;;;;;;69.57;35.50;;;;;;;;;;5094207;28;20226;-69
2022/01/16 12:12:16;;;;;;;68.93;33.70;;;;;;;;;;5094299;28;20268;-69
2022/01/16 12:14:46;;;;;;;80.23;33.30;;;;;;;;;;5092393;28;20239;-70
2022/01/16 12:17:31;;;;;;;79.17;33.93;;;;;;;;;;5094205;28;20242;-68
2022/01/16 12:20:18;;;;;;;84.63;36.33;;;;;;;;;;5094018;28;20237;-68
2022/01/16 12:22:48;;;;;;;75.03;32.60;;;;;;;;;;5093910;28;20246;-70
2022/01/16 12:25:43;;;;;;;68.53;33.13;;;;;;;;;;5102391;28;20728;-67
2022/01/16 12:28:10;;;;;;;75.17;35.23;;;;;;;;;;5103062;28;20234;-67
2022/01/16 12:30:48;;;;;;;79.17;35.23;;;;;;;;;;5093176;28;20295;-68
2022/01/16 12:33:15;;;;;;;78.10;34.57;;;;;;;;;;5092882;28;20238;-68
2022/01/16 12:35:50;;;;;;;76.90;34.50;;;;;;;;;;5092084;28;20697;-67
2022/01/16 12:38:23;;;;;;;73.90;34.00;;;;;;;;;;5084704;28;20238;-68
2022/01/16 12:40:58;;;;;;;70.33;33.00;;;;;;;;;;5113336;28;20230;-67
2022/01/16 12:43:30;;;;;;;73.33;35.00;;;;;;;;;;5112733;28;20728;-68
2022/01/16 12:45:59;;;;;;;80.00;35.27;;;;;;;;;;5112476;28;20252;-67
2022/01/16 12:48:27;;;;;;;72.47;34.30;;;;;;;;;;5095725;28;20261;-68
2022/01/16 12:51:02;;;;;;;74.93;35.10;;;;;;;;;;5113823;28;20648;-67
2022/01/16 12:53:41;;;;;;;76.53;35.13;;;;;;;;;;5096222;28;20232;-68
2022/01/16 12:56:35;;;;;;;74.30;35.03;;;;;;;;;;5114411;28;20236;-67
2022/01/16 12:59:06;;;;;;;70.63;33.43;;;;;;;;;;5111851;28;20233;-67
2022/01/16 13:01:33;;;;;;;81.47;35.90;;;;;;;;;;5114151;28;20276;-67
2022/01/16 13:04:00;;;;;;;72.80;35.63;;;;;;;;;;5113175;28;20249;-70
2022/01/16 13:06:31;;;;;;;73.20;34.10;;;;;;;;;;5114323;27;20241;-71
2022/01/16 13:09:06;;;;;;;69.53;34.37;;;;;;;;;;5100108;28;20237;-70
2022/01/16 13:11:36;;;;;;;83.90;36.60;;;;;;;;;;5118240;28;20264;-71
2022/01/16 13:14:08;;;;;;;78.73;35.30;;;;;;;;;;5115887;28;20233;-70
2022/01/16 13:16:41;;;;;;;86.97;35.37;;;;;;;;;;5118365;27;20589;-70
2022/01/16 13:19:13;;;;;;;80.20;34.87;;;;;;;;;;5112811;27;20226;-69
2022/01/16 13:21:49;;;;;;;79.40;36.07;;;;;;;;;;5101404;28;20237;-74
2022/01/16 13:24:40;;;;;;;78.20;34.80;;;;;;;;;;5108475;28;20242;-71
2022/01/16 13:27:15;;;;;;;78.83;36.43;;;;;;;;;;5114780;28;20229;-75
2022/01/16 13:29:57;;;;;;;85.57;37.70;;;;;;;;;;5118051;28;20226;-71
2022/01/16 13:32:35;;;;;;;95.20;41.10;;;;;;;;;;5118260;27;20308;-72
2022/01/16 13:35:05;;;;;;;104.70;44.40;;;;;;;;;;5082889;28;20229;-71
2022/01/16 13:37:36;;;;;;;92.63;39.63;;;;;;;;;;5119371;28;20226;-71
2022/01/16 13:40:08;;;;;;;88.93;40.23;;;;;;;;;;5117873;27;20627;-68
2022/01/16 13:42:51;;;;;;;89.70;38.10;;;;;;;;;;5117528;28;20317;-70
2022/01/16 13:45:39;;;;;;;91.97;40.50;;;;;;;;;;5085497;28;20229;-70
2022/01/16 13:48:16;;;;;;;88.77;40.07;;;;;;;;;;5118250;27;20238;-72
2022/01/16 13:50:49;;;;;;;92.37;40.53;;;;;;;;;;5140196;27;20232;-74
2022/01/16 13:53:19;;;;;;;91.03;42.00;;;;;;;;;;5120552;27;20229;-74
2022/01/16 13:55:49;;;;;;;86.90;41.23;;;;;;;;;;5088401;28;20305;-74
2022/01/16 13:58:21;;;;;;;97.87;41.30;;;;;;;;;;5083197;28;20636;-73
2022/01/16 14:00:49;;;;;;;118.17;52.53;;;;;;;;;;5083304;28;20205;-74
2022/01/16 14:03:20;;;;;;;89.13;40.23;;;;;;;;;;5083213;28;20278;-74
2022/01/16 14:05:48;;;;;;;84.07;37.77;;;;;;;;;;5099873;28;20222;-74
2022/01/16 14:08:17;;;;;;;96.63;39.87;;;;;;;;;;5116400;28;20255;-74
2022/01/16 14:10:44;;;;;;;85.13;37.37;;;;;;;;;;5082941;28;20214;-74
2022/01/16 14:13:11;;;;;;;86.37;38.33;;;;;;;;;;5083063;28;20202;-74
2022/01/16 14:15:40;;;;;;;90.17;38.67;;;;;;;;;;5083062;28;20210;-74
2022/01/16 14:18:27;;;;;;;82.50;36.97;;;;;;;;;;5081845;28;20267;-74
2022/01/16 14:21:58;;;;;;;83.37;37.40;;;;;;;;;;5085653;28;20198;-74
2022/01/16 14:23:42;;;;;;;84.70;37.63;;;;;;;;;;5101541;28;20238;-74
2022/01/16 14:26:09;;;;;;;88.87;37.30;;;;;;;;;;5076156;28;20218;-74
2022/01/16 14:28:36;;;;;;;87.40;38.17;;;;;;;;;;5070233;28;20602;-74
2022/01/16 14:31:04;;;;;;;80.47;36.83;;;;;;;;;;5062541;28;20211;-74
2022/01/16 14:33:48;;;;;;;90.97;37.03;;;;;;;;;;5083201;28;20283;-74
2022/01/16 14:36:54;;;;;;;80.20;36.73;;;;;;;;;;5059942;28;20214;-74
2022/01/16 14:39:44;;;;;;;78.97;36.07;;;;;;;;;;5064758;28;20210;-74
2022/01/16 14:42:18;;;;;;;80.53;34.13;;;;;;;;;;5079561;28;20199;-74
2022/01/16 14:44:47;;;;;;;89.03;38.87;;;;;;;;;;5078345;28;20661;-74
2022/01/16 14:47:15;;;;;;;90.87;38.77;;;;;;;;;;5062283;28;20653;-74
2022/01/16 14:49:43;;;;;;;83.77;36.53;;;;;;;;;;5062308;28;20213;-74
2022/01/16 14:52:11;;;;;;;80.93;36.87;;;;;;;;;;5062294;28;20206;-74
2022/01/16 14:54:49;;;;;;;74.30;35.63;;;;;;;;;;5069605;28;20210;-74
2022/01/16 14:57:19;;;;;;;92.67;36.60;;;;;;;;;;5082681;28;20205;-74
2022/01/16 14:59:46;;;;;;;86.40;37.23;;;;;;;;;;5081970;28;20556;-74
2022/01/16 15:02:15;;;;;;;80.17;35.43;;;;;;;;;;5082513;28;20207;-74
2022/01/16 15:04:44;;;;;;;84.30;35.30;;;;;;;;;;5081966;28;20237;-74
2022/01/16 15:07:12;;;;;;;91.63;37.23;;;;;;;;;;5082223;28;20672;-74
2022/01/16 15:09:39;;;;;;;79.33;35.60;;;;;;;;;;5081669;28;20259;-74
2022/01/16 15:12:07;;;;;;;80.47;35.03;;;;;;;;;;5081982;28;20206;-74
2022/01/16 15:14:35;;;;;;;83.03;36.53;;;;;;;;;;5098328;28;20214;-74
2022/01/16 15:17:02;;;;;;;90.67;36.70;;;;;;;;;;5098197;28;20300;-74
2022/01/16 15:19:33;;;;;;;87.37;36.47;;;;;;;;;;5115879;28;20206;-74
2022/01/16 15:22:21;;;;;;;80.20;35.87;;;;;;;;;;5116050;28;20198;-74
2022/01/16 15:24:50;;;;;;;82.20;35.43;;;;;;;;;;5115605;28;20234;-74
2022/01/16 15:27:18;;;;;;;85.70;36.33;;;;;;;;;;5108590;28;20570;-74